Time;durP1;ratioP1;P1;durP2;ratioP2;P2;SDS_P1;SDS_P2;PMS_P1;PMS_P2;Temp;Humidity;BMP_temperature;BMP_pressure;BME280_temperature;BME280_humidity;BME280_pressure;Samples;Min_cycle;Max_cycle;Signal;HPM_P1;HPM_P2
2021/05/26 00:00:13;;;;;;;25.23;23.57;;;12.90;63.90;;;;;;5064675;28;20940;-77
2021/05/26 00:02:39;;;;;;;23.63;22.43;;;12.80;65.00;;;;;;5050146;28;20517;-77
2021/05/26 00:05:07;;;;;;;24.50;23.20;;;12.80;64.70;;;;;;5055540;28;20458;-77
2021/05/26 00:07:34;;;;;;;24.13;22.70;;;12.80;64.30;;;;;;5051363;28;20466;-77
2021/05/26 00:10:01;;;;;;;24.17;22.70;;;12.90;64.20;;;;;;5053166;28;20569;-77
2021/05/26 00:12:28;;;;;;;23.70;22.50;;;13.00;64.20;;;;;;5061557;28;20581;-77
2021/05/26 00:14:54;;;;;;;23.77;22.47;;;13.00;64.30;;;;;;5062935;28;20590;-77
2021/05/26 00:17:21;;;;;;;23.97;22.60;;;12.90;64.50;;;;;;5054847;28;20462;-77
2021/05/26 00:19:48;;;;;;;24.60;23.30;;;13.00;64.70;;;;;;5064702;28;20458;-77
2021/05/26 00:22:14;;;;;;;23.70;22.40;;;13.10;64.50;;;;;;5062843;28;20524;-77
2021/05/26 00:24:40;;;;;;;24.77;23.10;;;13.10;64.50;;;;;;5064513;28;20538;-77
2021/05/26 00:27:08;;;;;;;31.00;26.53;;;13.10;65.30;;;;;;5061359;28;20462;-77
2021/05/26 00:29:34;;;;;;;24.63;23.23;;;13.00;65.10;;;;;;5064693;28;20454;-77
2021/05/26 00:32:01;;;;;;;23.50;22.30;;;13.00;64.90;;;;;;5060701;28;20506;-77
2021/05/26 00:34:27;;;;;;;23.73;22.50;;;13.10;64.90;;;;;;5062413;28;20554;-77
2021/05/26 00:36:53;;;;;;;23.90;22.60;;;13.00;65.30;;;;;;5055231;28;20471;-77
2021/05/26 00:39:20;;;;;;;23.87;22.63;;;13.10;65.10;;;;;;5051910;28;20469;-77
2021/05/26 00:41:46;;;;;;;24.07;22.77;;;13.10;65.00;;;;;;5060449;28;20480;-77
2021/05/26 00:44:15;;;;;;;23.90;22.50;;;13.20;64.90;;;;;;5062919;28;20462;-77
2021/05/26 00:46:43;;;;;;;23.80;22.50;;;13.10;64.90;;;;;;5058024;28;20454;-77
2021/05/26 00:49:10;;;;;;;23.53;22.37;;;13.20;64.90;;;;;;5064421;28;20461;-77
2021/05/26 00:51:37;;;;;;;24.73;23.37;;;13.20;64.80;;;;;;5061314;28;20494;-77
2021/05/26 00:54:04;;;;;;;24.40;23.20;;;13.20;65.00;;;;;;5060299;28;20462;-77
2021/05/26 00:56:32;;;;;;;23.90;22.60;;;13.30;64.80;;;;;;5059486;28;20557;-77
2021/05/26 00:59:00;;;;;;;24.37;23.07;;;13.20;64.90;;;;;;5062995;28;20555;-77
2021/05/26 01:01:27;;;;;;;23.83;22.53;;;13.20;64.80;;;;;;5058163;28;20549;-77
2021/05/26 01:03:55;;;;;;;24.47;23.03;;;13.20;64.90;;;;;;5060583;28;20458;-77
2021/05/26 01:06:22;;;;;;;24.10;22.90;;;13.20;65.00;;;;;;5060989;28;20507;-77
2021/05/26 01:08:48;;;;;;;24.40;23.00;;;13.20;65.40;;;;;;5064060;28;20466;-77
2021/05/26 01:11:14;;;;;;;23.83;22.53;;;13.20;65.30;;;;;;5061390;28;20465;-77
2021/05/26 01:13:41;;;;;;;25.30;23.67;;;13.20;65.40;;;;;;5062573;28;20458;-77
2021/05/26 01:16:07;;;;;;;24.67;23.37;;;13.20;65.30;;;;;;5062447;28;20477;-77
2021/05/26 01:18:36;;;;;;;24.30;23.00;;;13.20;65.50;;;;;;5062368;28;20492;-77
2021/05/26 01:21:06;;;;;;;23.90;22.57;;;13.20;66.60;;;;;;5060177;28;20537;-77
2021/05/26 01:23:35;;;;;;;23.60;22.40;;;13.20;66.50;;;;;;5045470;28;20531;-77
2021/05/26 01:26:03;;;;;;;24.50;23.00;;;13.30;66.70;;;;;;5059849;28;20454;-77
2021/05/26 01:28:32;;;;;;;24.50;23.03;;;13.20;67.20;;;;;;5063584;28;20466;-77
2021/05/26 01:30:59;;;;;;;24.30;22.80;;;13.20;67.50;;;;;;5065385;28;20468;-76
2021/05/26 01:33:28;;;;;;;24.70;23.33;;;13.10;67.80;;;;;;5065238;28;20474;-77
2021/05/26 01:35:54;;;;;;;24.50;23.20;;;13.20;68.30;;;;;;5063724;28;20494;-77
2021/05/26 01:38:22;;;;;;;24.40;23.10;;;13.10;68.40;;;;;;5066352;28;20541;-77
2021/05/26 01:40:50;;;;;;;24.70;23.30;;;13.00;68.70;;;;;;5066057;28;20457;-77
2021/05/26 01:43:16;;;;;;;24.30;22.90;;;13.00;68.70;;;;;;5065181;28;20478;-77
2021/05/26 01:45:43;;;;;;;23.63;22.43;;;12.90;68.60;;;;;;5063170;28;20564;-76
2021/05/26 01:48:10;;;;;;;24.40;23.10;;;12.80;68.80;;;;;;5064066;28;20477;-77
2021/05/26 01:50:37;;;;;;;25.10;23.80;;;12.70;69.40;;;;;;5067435;28;20449;-77
2021/05/26 01:53:05;;;;;;;24.37;23.00;;;12.80;69.40;;;;;;5063344;28;20564;-77
2021/05/26 01:55:33;;;;;;;24.50;23.20;;;12.80;68.70;;;;;;5064395;28;20485;-76
2021/05/26 01:58:01;;;;;;;24.33;23.03;;;12.80;68.30;;;;;;5065673;28;20541;-77
2021/05/26 02:00:27;;;;;;;25.20;23.70;;;12.80;68.50;;;;;;5065811;28;20470;-77
2021/05/26 02:02:54;;;;;;;23.83;22.50;;;12.70;68.90;;;;;;5063802;28;20878;-77
2021/05/26 02:05:21;;;;;;;25.03;23.53;;;12.60;69.00;;;;;;5064170;28;20499;-77
2021/05/26 02:07:48;;;;;;;23.97;22.57;;;12.60;69.00;;;;;;5063286;28;20468;-77
2021/05/26 02:10:16;;;;;;;24.63;23.27;;;12.70;68.90;;;;;;5065831;28;21287;-77
2021/05/26 02:12:43;;;;;;;25.37;24.07;;;12.70;69.20;;;;;;5064161;28;20482;-77
2021/05/26 02:15:14;;;;;;;25.60;24.00;;;12.60;69.90;;;;;;5063460;28;20491;-76
2021/05/26 02:17:40;;;;;;;24.30;23.10;;;12.50;70.00;;;;;;5062624;28;20470;-77
2021/05/26 02:20:09;;;;;;;24.83;23.43;;;12.50;70.20;;;;;;5066309;28;20458;-77
2021/05/26 02:22:35;;;;;;;32.93;31.23;;;12.60;70.00;;;;;;5062909;28;20470;-77
2021/05/26 02:25:03;;;;;;;24.47;23.20;;;12.60;70.10;;;;;;5061672;28;20963;-77
2021/05/26 02:27:29;;;;;;;25.33;23.70;;;12.60;70.20;;;;;;5064288;28;20454;-77
2021/05/26 02:29:56;;;;;;;24.50;23.10;;;12.60;70.40;;;;;;5064574;28;20539;-77
2021/05/26 02:32:24;;;;;;;25.23;23.77;;;12.50;70.50;;;;;;5053404;28;20474;-77
2021/05/26 02:34:50;;;;;;;24.70;23.20;;;12.50;70.70;;;;;;5060646;28;20544;-77
2021/05/26 02:37:17;;;;;;;24.00;22.70;;;12.40;71.00;;;;;;5059605;28;20466;-77
2021/05/26 02:39:43;;;;;;;24.83;23.33;;;12.40;71.30;;;;;;5067065;28;20458;-77
2021/05/26 02:42:10;;;;;;;24.60;23.23;;;12.40;71.50;;;;;;5053815;28;20486;-77
2021/05/26 02:44:36;;;;;;;24.20;22.80;;;12.30;71.40;;;;;;5053884;28;21237;-77
2021/05/26 02:47:03;;;;;;;23.40;22.20;;;12.30;71.50;;;;;;5062865;28;20528;-77
2021/05/26 02:49:30;;;;;;;24.60;23.20;;;12.30;71.90;;;;;;5066069;28;20568;-77
2021/05/26 02:51:56;;;;;;;25.23;23.93;;;12.20;72.10;;;;;;5057924;28;21626;-77
2021/05/26 02:54:23;;;;;;;39.10;37.40;;;12.20;72.80;;;;;;5049570;28;20453;-77
2021/05/26 02:56:49;;;;;;;28.60;27.10;;;12.30;72.80;;;;;;5057584;28;20602;-77
2021/05/26 02:59:16;;;;;;;26.00;24.40;;;12.30;72.60;;;;;;5065076;28;20458;-77
2021/05/26 03:01:42;;;;;;;25.20;23.70;;;12.30;72.90;;;;;;5057168;28;20532;-77
2021/05/26 03:04:09;;;;;;;24.53;23.13;;;12.30;73.40;;;;;;5057174;28;20454;-77
2021/05/26 03:06:36;;;;;;;25.03;23.53;;;12.30;74.10;;;;;;5059705;28;20462;-77
2021/05/26 03:09:03;;;;;;;25.20;23.80;;;12.30;74.40;;;;;;5063003;28;20527;-77
2021/05/26 03:11:30;;;;;;;31.43;29.40;;;12.30;74.50;;;;;;5060744;28;20486;-77
2021/05/26 03:13:56;;;;;;;25.43;23.83;;;12.20;75.40;;;;;;5059512;28;21167;-76
2021/05/26 03:16:23;;;;;;;24.80;23.50;;;12.20;75.40;;;;;;5060212;28;20470;-77
2021/05/26 03:18:49;;;;;;;27.53;25.83;;;12.20;75.70;;;;;;5059904;28;20598;-77
2021/05/26 03:21:16;;;;;;;24.47;22.97;;;12.30;75.90;;;;;;5062588;28;20775;-77
2021/05/26 03:23:43;;;;;;;24.83;23.43;;;12.10;76.10;;;;;;5057619;28;20470;-76
2021/05/26 03:26:11;;;;;;;30.57;28.43;;;12.10;76.30;;;;;;5062810;28;20446;-76
2021/05/26 03:28:37;;;;;;;30.57;28.70;;;12.10;76.60;;;;;;5057712;28;20461;-76
2021/05/26 03:31:04;;;;;;;26.80;25.30;;;12.10;76.30;;;;;;5062920;28;20580;-76
2021/05/26 03:33:31;;;;;;;25.17;23.70;;;12.10;76.30;;;;;;5061946;28;20565;-77
2021/05/26 03:35:57;;;;;;;25.33;23.67;;;12.10;76.70;;;;;;5063335;28;20477;-76
2021/05/26 03:38:24;;;;;;;26.67;25.00;;;12.10;76.70;;;;;;5055295;28;20458;-76
2021/05/26 03:40:51;;;;;;;29.80;28.10;;;12.10;76.50;;;;;;5053363;28;20459;-77
2021/05/26 03:43:17;;;;;;;27.07;25.37;;;12.10;76.10;;;;;;5045820;28;21011;-77
2021/05/26 03:45:44;;;;;;;28.87;27.00;;;12.10;75.90;;;;;;5059918;28;20948;-77
2021/05/26 03:48:11;;;;;;;24.70;23.23;;;12.10;75.90;;;;;;5056904;28;20592;-77
2021/05/26 03:50:37;;;;;;;24.37;23.00;;;12.10;75.50;;;;;;5062435;28;20505;-77
2021/05/26 03:53:05;;;;;;;25.00;23.50;;;12.10;75.40;;;;;;5054220;28;20489;-77
2021/05/26 03:55:31;;;;;;;25.17;23.77;;;12.20;74.60;;;;;;5062088;28;20544;-77
2021/05/26 03:57:58;;;;;;;25.23;23.53;;;12.30;74.60;;;;;;5057322;28;20454;-77
2021/05/26 04:00:25;;;;;;;27.43;25.90;;;12.30;74.40;;;;;;5064474;28;20562;-77
2021/05/26 04:02:51;;;;;;;25.30;23.87;;;12.30;74.60;;;;;;5058719;28;20478;-76
2021/05/26 04:05:18;;;;;;;24.40;23.00;;;12.30;74.80;;;;;;5062426;28;20461;-77
2021/05/26 04:07:44;;;;;;;25.53;23.83;;;12.10;75.20;;;;;;5056100;28;20457;-76
2021/05/26 04:10:12;;;;;;;26.63;24.77;;;12.20;75.20;;;;;;5059675;28;20494;-77
2021/05/26 04:12:38;;;;;;;26.40;24.70;;;12.30;75.30;;;;;;5062346;28;20478;-77
2021/05/26 04:15:10;;;;;;;27.00;25.30;;;12.30;75.60;;;;;;5053260;28;20474;-77
2021/05/26 04:17:37;;;;;;;26.70;25.00;;;12.30;75.50;;;;;;5061833;28;20474;-77
2021/05/26 04:20:05;;;;;;;27.17;25.67;;;12.30;75.60;;;;;;5063292;28;20466;-77
2021/05/26 04:22:31;;;;;;;28.60;27.00;;;12.20;75.90;;;;;;5062088;28;20478;-77
2021/05/26 04:24:58;;;;;;;29.17;27.57;;;12.20;76.20;;;;;;5063426;28;20839;-77
2021/05/26 04:27:25;;;;;;;27.17;25.20;;;12.30;76.90;;;;;;5058030;28;20450;-77
2021/05/26 04:29:51;;;;;;;25.23;23.83;;;12.30;76.60;;;;;;5064438;28;20454;-77
2021/05/26 04:32:18;;;;;;;27.33;25.80;;;12.30;76.90;;;;;;5061795;28;21021;-77
2021/05/26 04:34:45;;;;;;;25.57;23.80;;;12.30;76.90;;;;;;5062909;28;21016;-77
2021/05/26 04:37:11;;;;;;;26.03;24.03;;;12.30;77.00;;;;;;5058837;28;20466;-76
2021/05/26 04:39:37;;;;;;;28.27;26.50;;;12.30;77.20;;;;;;5064137;28;20453;-77
2021/05/26 04:42:05;;;;;;;27.73;25.90;;;12.30;77.50;;;;;;5054296;28;21063;-76
2021/05/26 04:44:31;;;;;;;26.80;25.30;;;12.20;78.20;;;;;;5057014;28;20931;-77
2021/05/26 04:46:58;;;;;;;27.70;25.80;;;12.20;78.50;;;;;;5054676;28;20454;-76
2021/05/26 04:49:25;;;;;;;24.57;23.27;;;12.20;78.70;;;;;;5063138;28;20457;-77
2021/05/26 04:51:53;;;;;;;25.70;24.20;;;12.20;78.40;;;;;;5056617;28;20481;-77
2021/05/26 04:54:19;;;;;;;23.03;21.73;;;12.30;78.90;;;;;;5060186;28;20465;-77
2021/05/26 04:56:46;;;;;;;23.93;22.63;;;12.20;78.80;;;;;;5056763;28;20478;-77
2021/05/26 04:59:12;;;;;;;25.77;24.27;;;12.20;78.90;;;;;;5061249;28;20577;-77
2021/05/26 05:01:39;;;;;;;25.03;23.50;;;12.20;79.00;;;;;;5056313;28;20882;-77
2021/05/26 05:04:05;;;;;;;25.33;23.93;;;12.20;79.10;;;;;;5045382;28;20466;-77
2021/05/26 05:06:33;;;;;;;23.60;22.30;;;12.20;79.60;;;;;;5063150;28;20483;-77
2021/05/26 05:08:59;;;;;;;24.40;22.87;;;12.30;79.70;;;;;;5064028;28;20505;-77
2021/05/26 05:11:26;;;;;;;23.73;22.43;;;12.30;79.70;;;;;;5062399;28;20458;-77
2021/05/26 05:13:52;;;;;;;27.47;25.97;;;12.20;79.70;;;;;;5048594;28;20464;-77
2021/05/26 05:16:18;;;;;;;24.57;23.10;;;12.10;80.30;;;;;;5057990;28;20482;-77
2021/05/26 05:18:46;;;;;;;30.97;28.33;;;12.20;80.20;;;;;;5066206;28;20942;-77
2021/05/26 05:21:12;;;;;;;24.30;22.80;;;12.20;80.50;;;;;;5063015;28;20488;-77
2021/05/26 05:23:40;;;;;;;24.27;22.50;;;12.20;80.30;;;;;;5067369;28;20498;-77
2021/05/26 05:26:06;;;;;;;22.60;21.30;;;12.20;80.60;;;;;;5065683;28;20543;-77
2021/05/26 05:28:33;;;;;;;24.30;22.80;;;12.20;80.80;;;;;;5065135;28;20457;-77
2021/05/26 05:30:59;;;;;;;22.60;21.40;;;12.20;81.00;;;;;;5066023;28;20497;-78
2021/05/26 05:33:26;;;;;;;26.03;24.47;;;12.20;80.70;;;;;;5065332;28;20550;-77
2021/05/26 05:35:53;;;;;;;23.60;22.30;;;12.30;81.10;;;;;;5066452;28;20833;-77
2021/05/26 05:38:19;;;;;;;23.90;22.60;;;12.30;80.90;;;;;;5062541;28;20468;-77
2021/05/26 05:40:47;;;;;;;25.23;23.50;;;12.40;80.50;;;;;;5065243;28;20483;-77
2021/05/26 05:43:14;;;;;;;25.77;24.33;;;12.40;80.30;;;;;;5050962;28;21354;-77
2021/05/26 05:45:41;;;;;;;23.50;22.00;;;12.40;81.20;;;;;;5065139;28;20478;-77
2021/05/26 05:48:07;;;;;;;26.17;24.20;;;12.60;80.30;;;;;;5062669;28;20288;-77
2021/05/26 05:50:34;;;;;;;27.30;25.77;;;12.60;80.20;;;;;;5066447;28;20454;-77
2021/05/26 05:53:00;;;;;;;25.50;24.10;;;12.50;80.80;;;;;;5064316;28;21253;-77
2021/05/26 05:55:27;;;;;;;22.77;21.50;;;12.50;80.50;;;;;;5065318;28;20482;-77
2021/05/26 05:57:54;;;;;;;24.67;23.17;;;12.50;80.60;;;;;;5065001;28;20553;-78
2021/05/26 06:00:21;;;;;;;25.60;24.10;;;12.50;80.90;;;;;;5066359;28;20837;-78
2021/05/26 06:02:47;;;;;;;23.50;22.20;;;12.50;81.20;;;;;;5058009;28;20484;-77
2021/05/26 06:05:14;;;;;;;28.70;27.20;;;12.50;81.60;;;;;;5063683;28;20473;-77
2021/05/26 06:07:41;;;;;;;23.40;22.13;;;12.50;81.40;;;;;;5059208;28;20458;-77
2021/05/26 06:10:09;;;;;;;25.17;23.73;;;12.60;81.10;;;;;;5064259;28;20457;-78
2021/05/26 06:12:35;;;;;;;24.97;23.27;;;12.70;81.00;;;;;;5056953;28;20486;-78
2021/05/26 06:15:03;;;;;;;24.10;22.60;;;12.60;81.00;;;;;;5064642;28;20516;-77
2021/05/26 06:17:30;;;;;;;25.63;24.13;;;12.60;82.70;;;;;;5056082;28;21000;-77
2021/05/26 06:19:56;;;;;;;25.80;24.30;;;12.80;81.50;;;;;;5064514;28;20464;-80
2021/05/26 06:22:23;;;;;;;23.43;22.13;;;12.70;81.40;;;;;;5054377;28;20479;-78
2021/05/26 06:24:49;;;;;;;24.43;23.13;;;12.70;82.10;;;;;;5060442;28;20454;-78
2021/05/26 06:27:16;;;;;;;25.27;23.67;;;12.80;82.20;;;;;;5060747;28;20459;-77
2021/05/26 06:29:42;;;;;;;23.17;21.80;;;12.90;81.70;;;;;;5063908;28;20461;-77
2021/05/26 06:32:09;;;;;;;25.57;23.87;;;13.10;81.40;;;;;;5055906;28;20478;-76
2021/05/26 06:34:37;;;;;;;25.13;23.50;;;13.00;81.10;;;;;;5060428;28;20462;-72
2021/05/26 06:37:05;;;;;;;23.40;22.10;;;13.00;80.90;;;;;;5052893;28;20496;-76
2021/05/26 06:39:34;;;;;;;27.17;25.43;;;13.00;80.80;;;;;;5066112;28;20494;-79
2021/05/26 06:42:01;;;;;;;23.13;21.90;;;13.10;80.90;;;;;;5059472;28;21076;-76
2021/05/26 06:44:28;;;;;;;23.97;22.47;;;13.20;82.40;;;;;;5065275;28;20454;-78
2021/05/26 06:46:54;;;;;;;25.80;23.87;;;13.20;80.60;;;;;;5062038;28;20452;-78
2021/05/26 06:49:22;;;;;;;25.50;24.10;;;13.40;80.10;;;;;;5067895;28;20515;-76
2021/05/26 06:51:48;;;;;;;25.53;24.03;;;13.50;79.80;;;;;;5060266;28;20486;-78
2021/05/26 06:54:14;;;;;;;23.70;22.40;;;13.70;79.60;;;;;;5065484;28;20482;-79
2021/05/26 06:56:41;;;;;;;25.30;23.60;;;13.70;79.50;;;;;;5058159;28;20513;-77
2021/05/26 06:59:07;;;;;;;23.77;22.37;;;13.80;78.70;;;;;;5067482;28;20460;-77
2021/05/26 07:01:34;;;;;;;24.67;23.37;;;13.90;78.90;;;;;;5063358;28;20491;-78
2021/05/26 07:04:00;;;;;;;26.17;24.57;;;13.90;78.40;;;;;;5059515;28;20549;-78
2021/05/26 07:06:27;;;;;;;24.97;23.60;;;13.90;78.90;;;;;;5064402;28;20995;-80
2021/05/26 07:08:55;;;;;;;24.73;23.27;;;13.80;79.40;;;;;;5058717;28;21054;-80
2021/05/26 07:11:22;;;;;;;24.70;23.30;;;14.00;78.60;;;;;;5061628;28;20447;-77
2021/05/26 07:13:48;;;;;;;24.40;23.00;;;14.10;77.40;;;;;;5057745;28;20460;-79
2021/05/26 07:16:15;;;;;;;26.40;24.93;;;14.10;77.70;;;;;;5059273;28;20477;-79
2021/05/26 07:18:46;;;;;;;25.67;24.33;;;14.00;78.20;;;;;;5062986;28;20470;-79
2021/05/26 07:21:12;;;;;;;29.07;26.47;;;14.10;78.20;;;;;;5059446;28;20838;-79
2021/05/26 07:23:40;;;;;;;26.10;24.33;;;14.10;77.90;;;;;;5063735;28;20545;-78
2021/05/26 07:26:07;;;;;;;26.27;24.10;;;14.30;77.10;;;;;;5053378;28;20451;-79
2021/05/26 07:28:33;;;;;;;25.37;23.77;;;14.30;77.50;;;;;;5057257;28;20495;-78
2021/05/26 07:31:00;;;;;;;24.60;23.10;;;14.40;78.50;;;;;;5060874;28;20584;-78
2021/05/26 07:33:26;;;;;;;27.27;25.80;;;14.30;77.30;;;;;;5064997;28;20480;-79
2021/05/26 07:35:53;;;;;;;27.60;24.97;;;14.30;77.50;;;;;;5062581;28;20643;-77
2021/05/26 07:38:19;;;;;;;25.47;23.77;;;14.40;77.20;;;;;;5070555;28;20549;-80
2021/05/26 07:40:47;;;;;;;26.07;24.47;;;14.60;76.30;;;;;;5067757;28;20951;-80
2021/05/26 07:43:14;;;;;;;28.50;26.70;;;14.50;75.60;;;;;;5062518;28;20490;-80
2021/05/26 07:45:40;;;;;;;27.27;25.60;;;14.50;75.40;;;;;;5070651;28;20549;-80
2021/05/26 07:48:07;;;;;;;26.17;24.47;;;14.50;75.80;;;;;;5066397;28;20620;-80
2021/05/26 07:50:35;;;;;;;25.60;24.03;;;14.50;75.50;;;;;;5063263;28;20465;-75
2021/05/26 07:53:01;;;;;;;25.37;23.97;;;14.40;74.40;;;;;;5061285;28;20478;-75
2021/05/26 07:55:28;;;;;;;25.87;24.27;;;14.50;74.40;;;;;;5066077;28;20481;-80
2021/05/26 07:57:55;;;;;;;27.40;25.50;;;14.60;75.10;;;;;;5063664;28;20910;-79
2021/05/26 08:00:23;;;;;;;24.27;22.70;;;14.50;73.60;;;;;;5070817;28;20455;-79
2021/05/26 08:02:51;;;;;;;26.97;25.17;;;14.40;73.40;;;;;;5065840;28;20474;-80
2021/05/26 08:05:18;;;;;;;26.30;24.23;;;14.40;73.80;;;;;;5071296;28;21482;-80
2021/05/26 08:07:45;;;;;;;25.57;23.97;;;14.50;73.40;;;;;;5067245;28;20875;-80
2021/05/26 08:10:12;;;;;;;26.13;24.43;;;14.60;72.80;;;;;;5067112;28;20472;-80
2021/05/26 08:12:38;;;;;;;26.73;24.83;;;14.70;72.00;;;;;;5058137;28;20489;-80
2021/05/26 08:15:08;;;;;;;25.67;23.97;;;14.70;72.90;;;;;;5069228;28;20496;-77
2021/05/26 08:17:34;;;;;;;26.43;24.70;;;14.60;72.10;;;;;;5058439;28;20458;-77
2021/05/26 08:20:03;;;;;;;26.43;24.57;;;14.70;72.40;;;;;;5058996;28;20561;-78
2021/05/26 08:22:29;;;;;;;28.97;26.87;;;14.70;71.30;;;;;;5056162;28;20474;-77
2021/05/26 08:24:56;;;;;;;33.40;25.67;;;14.80;71.50;;;;;;5058820;28;20835;-76
2021/05/26 08:27:22;;;;;;;121.87;35.60;;;14.70;71.90;;;;;;5052607;28;20454;-78
2021/05/26 08:29:48;;;;;;;604.53;85.63;;;14.70;71.90;;;;;;5058936;28;20986;-78
2021/05/26 08:32:16;;;;;;;62.97;29.80;;;14.70;72.40;;;;;;5057366;28;20555;-78
2021/05/26 08:34:42;;;;;;;102.67;34.23;;;14.70;71.90;;;;;;5058847;28;20547;-79
2021/05/26 08:37:09;;;;;;;40.30;27.13;;;14.70;72.40;;;;;;5055394;28;20483;-80
2021/05/26 08:39:36;;;;;;;353.33;54.40;;;14.60;71.00;;;;;;5068912;28;20541;-81
2021/05/26 08:42:03;;;;;;;94.80;30.10;;;14.70;71.10;;;;;;5065018;28;20482;-81
2021/05/26 08:44:30;;;;;;;62.67;32.20;;;14.70;71.00;;;;;;5070409;28;20481;-81
2021/05/26 08:46:57;;;;;;;34.13;26.20;;;14.60;70.50;;;;;;5067446;28;21050;-80
2021/05/26 08:49:27;;;;;;;38.77;26.00;;;14.50;71.30;;;;;;5068506;28;20464;-80
2021/05/26 08:51:54;;;;;;;26.80;24.70;;;14.50;71.40;;;;;;5065230;28;20499;-80
2021/05/26 08:54:21;;;;;;;26.70;24.73;;;14.50;72.60;;;;;;5059491;28;20890;-79
2021/05/26 08:56:48;;;;;;;29.13;25.37;;;14.60;72.40;;;;;;5055921;28;20839;-80
2021/05/26 08:59:16;;;;;;;31.43;27.80;;;14.70;70.60;;;;;;5062528;28;20457;-80
2021/05/26 09:01:48;;;;;;;28.30;26.27;;;14.50;70.80;;;;;;5062156;28;20488;-79
2021/05/26 09:04:28;;;;;;;43.77;39.00;;;14.40;72.30;;;;;;5060149;28;20975;-80
2021/05/26 09:07:08;;;;;;;28.60;26.60;;;14.50;71.70;;;;;;5065037;28;21243;-80
2021/05/26 09:09:47;;;;;;;28.87;26.80;;;14.60;71.50;;;;;;5066551;28;20454;-81
2021/05/26 09:12:14;;;;;;;27.33;24.60;;;14.70;72.30;;;;;;5051515;28;20492;-81
2021/05/26 09:14:41;;;;;;;27.57;25.47;;;14.80;71.20;;;;;;5067741;28;20536;-80
2021/05/26 09:17:11;;;;;;;27.03;24.20;;;14.90;71.10;;;;;;5065434;28;20478;-80
2021/05/26 09:19:39;;;;;;;26.13;24.30;;;14.90;70.70;;;;;;5073331;28;20847;-80
2021/05/26 09:22:13;;;;;;;27.90;25.80;;;15.00;70.70;;;;;;5071999;28;20478;-80
2021/05/26 09:24:40;;;;;;;28.10;25.90;;;15.00;70.80;;;;;;5071468;28;20463;-80
2021/05/26 09:27:08;;;;;;;28.10;26.17;;;15.10;70.50;;;;;;5068884;28;20499;-81
2021/05/26 09:29:36;;;;;;;419.57;64.47;;;15.00;70.60;;;;;;5073885;28;20537;-80
2021/05/26 09:32:17;;;;;;;53.47;30.30;;;14.90;70.90;;;;;;5080003;28;20503;-85
2021/05/26 09:34:47;;;;;;;27.57;24.93;;;14.90;69.90;;;;;;5066014;28;20461;-80
2021/05/26 09:37:14;;;;;;;26.70;24.70;;;15.00;71.80;;;;;;5072464;28;20489;-81
2021/05/26 09:40:00;;;;;;;28.23;26.47;;;15.10;71.60;;;;;;5072398;28;20573;-81
2021/05/26 09:42:34;;;;;;;26.50;24.60;;;15.10;69.90;;;;;;5068753;28;20478;-81
2021/05/26 09:45:06;;;;;;;28.00;26.27;;;15.00;70.90;;;;;;5069861;28;20467;-81
2021/05/26 09:47:37;;;;;;;26.80;24.80;;;15.00;69.90;;;;;;5073949;28;20465;-81
2021/05/26 09:50:33;;;;;;;27.00;25.20;;;15.00;69.70;;;;;;5074907;28;20537;-81
2021/05/26 09:53:10;;;;;;;26.23;24.10;;;14.80;69.70;;;;;;5058461;28;20482;-81
2021/05/26 09:55:38;;;;;;;25.13;23.73;;;14.80;69.70;;;;;;5074499;28;20453;-81
2021/05/26 09:58:06;;;;;;;23.80;22.30;;;15.00;70.10;;;;;;5071916;28;20464;-81
2021/05/26 10:00:36;;;;;;;26.70;24.90;;;15.10;68.00;;;;;;5074847;28;20540;-81
2021/05/26 10:03:07;;;;;;;28.97;27.17;;;15.30;68.00;;;;;;5073535;28;20482;-81
2021/05/26 10:05:34;;;;;;;25.60;23.83;;;15.40;67.80;;;;;;5072332;28;20466;-81
2021/05/26 10:08:04;;;;;;;25.20;23.53;;;15.50;67.90;;;;;;5074156;28;20458;-81
2021/05/26 10:10:32;;;;;;;24.83;23.43;;;15.60;67.20;;;;;;5077249;28;20883;-81
2021/05/26 10:13:01;;;;;;;26.70;24.40;;;15.60;67.30;;;;;;5061756;27;20464;-81
2021/05/26 10:15:32;;;;;;;25.70;24.20;;;15.50;66.70;;;;;;5068287;28;20202;-81
2021/05/26 10:18:07;;;;;;;24.60;23.00;;;15.50;66.50;;;;;;5071636;28;20975;-81
2021/05/26 10:20:38;;;;;;;23.60;22.40;;;15.50;66.50;;;;;;5072406;28;20517;-81
2021/05/26 10:23:07;;;;;;;23.83;22.53;;;15.50;66.70;;;;;;5067160;28;20589;-81
2021/05/26 10:25:34;;;;;;;23.30;22.00;;;15.50;65.90;;;;;;5075053;28;20505;-81
2021/05/26 10:28:01;;;;;;;24.00;22.60;;;15.50;67.10;;;;;;5073511;28;20524;-81
2021/05/26 10:30:29;;;;;;;24.57;22.97;;;15.80;66.80;;;;;;5075387;28;20465;-81
2021/05/26 10:32:58;;;;;;;24.73;23.13;;;15.90;66.10;;;;;;5072734;28;20659;-81
2021/05/26 10:35:25;;;;;;;26.43;24.93;;;16.00;65.00;;;;;;5070893;28;20484;-81
2021/05/26 10:38:05;;;;;;;24.90;23.60;;;15.80;65.50;;;;;;5068631;28;20464;-81
2021/05/26 10:40:38;;;;;;;25.57;24.07;;;15.80;65.80;;;;;;5074685;28;21257;-80
2021/05/26 10:43:30;;;;;;;26.20;24.70;;;15.90;65.90;;;;;;5066968;28;20895;-81
2021/05/26 10:45:58;;;;;;;25.97;24.47;;;16.10;66.00;;;;;;5073090;28;20450;-81
2021/05/26 10:49:02;;;;;;;24.30;23.00;;;16.30;65.30;;;;;;5073034;28;20557;-81
2021/05/26 10:51:57;;;;;;;24.87;23.47;;;16.20;64.80;;;;;;5066869;28;20449;-81
2021/05/26 10:54:59;;;;;;;25.90;24.40;;;16.30;64.10;;;;;;5057393;28;20463;-80
2021/05/26 10:57:28;;;;;;;25.77;24.27;;;16.20;65.00;;;;;;5057241;28;20505;-79
2021/05/26 11:00:30;;;;;;;24.70;23.40;;;16.30;64.50;;;;;;5067589;28;20450;-78
2021/05/26 11:03:39;;;;;;;25.70;24.20;;;16.50;64.80;;;;;;5061422;28;20517;-79
2021/05/26 11:06:36;;;;;;;26.40;25.00;;;16.80;63.10;;;;;;5061358;28;20462;-79
2021/05/26 11:09:06;;;;;;;25.23;23.93;;;16.80;63.40;;;;;;5065650;28;20473;-81
2021/05/26 11:11:47;;;;;;;26.80;25.20;;;16.70;63.00;;;;;;5069918;28;20475;-79
2021/05/26 11:14:29;;;;;;;25.23;23.80;;;16.80;63.80;;;;;;5067795;28;20552;-79
2021/05/26 11:17:35;;;;;;;24.90;23.60;;;16.90;63.10;;;;;;5068535;28;20485;-80
2021/05/26 11:20:26;;;;;;;25.93;24.43;;;16.90;62.70;;;;;;5065229;28;20504;-80
2021/05/26 11:22:52;;;;;;;26.57;24.60;;;16.90;62.90;;;;;;5066000;28;20501;-81
2021/05/26 11:25:19;;;;;;;25.70;24.20;;;16.80;63.20;;;;;;5059751;28;20472;-78
2021/05/26 11:27:55;;;;;;;25.30;23.80;;;16.70;63.20;;;;;;5056369;28;20470;-77
2021/05/26 11:30:26;;;;;;;25.17;23.47;;;16.60;63.20;;;;;;5065600;28;20556;-76
2021/05/26 11:32:54;;;;;;;26.20;24.50;;;16.60;63.30;;;;;;5060697;28;20593;-75
2021/05/26 11:35:20;;;;;;;24.73;23.33;;;16.80;62.90;;;;;;5059725;28;20458;-75
2021/05/26 11:37:47;;;;;;;25.50;23.80;;;16.80;62.80;;;;;;5055118;28;20482;-77
2021/05/26 11:40:25;;;;;;;24.80;23.30;;;16.80;62.50;;;;;;5053120;28;20562;-76
2021/05/26 11:42:53;;;;;;;25.90;24.40;;;16.80;63.10;;;;;;5055512;28;20516;-76
2021/05/26 11:45:21;;;;;;;28.37;26.57;;;16.80;63.30;;;;;;5061793;28;20458;-77
2021/05/26 11:47:50;;;;;;;25.87;24.37;;;16.90;62.50;;;;;;5059042;28;20457;-76
2021/05/26 11:50:36;;;;;;;24.03;22.63;;;16.80;62.30;;;;;;5057022;28;20885;-76
2021/05/26 11:53:16;;;;;;;25.23;23.83;;;16.90;62.50;;;;;;5052209;28;20851;-76
2021/05/26 11:55:48;;;;;;;25.27;23.57;;;16.90;62.20;;;;;;5061691;28;20461;-79
2021/05/26 11:58:33;;;;;;;26.10;24.40;;;16.90;62.10;;;;;;5058825;28;20552;-76
2021/05/26 12:01:02;;;;;;;25.03;23.63;;;16.90;62.70;;;;;;5060774;28;20459;-77
2021/05/26 12:03:31;;;;;;;26.17;24.57;;;17.00;61.90;;;;;;5064650;28;20510;-77
2021/05/26 12:05:58;;;;;;;25.90;24.27;;;17.00;61.80;;;;;;5053849;28;20833;-76
2021/05/26 12:08:25;;;;;;;24.90;23.40;;;17.20;61.20;;;;;;5065950;28;20571;-76
2021/05/26 12:10:53;;;;;;;24.37;22.97;;;17.20;59.90;;;;;;5070823;28;20446;-76
2021/05/26 12:13:21;;;;;;;24.80;23.30;;;17.40;59.40;;;;;;5053771;28;20511;-78
2021/05/26 12:15:48;;;;;;;27.10;25.60;;;17.70;60.10;;;;;;5055658;28;20453;-77
2021/05/26 12:18:14;;;;;;;24.60;23.20;;;18.10;59.30;;;;;;5056840;28;20900;-77
2021/05/26 12:20:47;;;;;;;30.27;28.57;;;18.10;59.90;;;;;;5061822;28;20464;-77
2021/05/26 12:23:14;;;;;;;25.80;24.30;;;18.30;59.80;;;;;;5062812;28;20474;-78
2021/05/26 12:25:43;;;;;;;25.10;23.70;;;18.40;60.00;;;;;;5061282;28;20786;-76
2021/05/26 12:28:18;;;;;;;26.63;25.10;;;18.50;58.30;;;;;;5059575;28;20489;-78
2021/05/26 12:30:44;;;;;;;29.07;27.37;;;18.80;60.20;;;;;;5064819;28;20572;-79
2021/05/26 12:33:20;;;;;;;29.37;27.63;;;19.00;58.60;;;;;;5063026;28;20616;-78